Carona, Kansas
Current Conditions -  °F | °C
As of 4:15 PM on Thursday 23 Oct 2014 (Local Time) from KPTS Reporting Station
Overcast Overcast  
Wind Chill: 61°   Ceiling: 1100
Heat Index: 61°   Visibility: 10mi
Dew Point: 60°   Wind: 9mph
Humidity: 96%   Direction: 240°WSW
Pressure: 30.09"   Gusts: NA
Location:  37.2661°N, 94.8513°W
Report Text: KPTS 232115Z AUTO 24008KT 10SM OVC011 16/16 A3009 RMK AO2 T01620155
Loading
Personal Weather Stations






























Interactive Weather Map
Tropical Storm Tracking
New forecast layout! Learn more

10-Day Weather Forecast

Advertisements
Track Severe Weather on mobile